createdAt,value
2024-01-03T00:00:31.426Z,98453.81
2024-01-03T00:02:58.277Z,98457.19
2024-01-03T00:05:46.091Z,98435.50
2024-01-03T00:08:19.005Z,98458.06
2024-01-03T00:10:48.669Z,98461.31
2024-01-03T00:13:30.906Z,98466.06
2024-01-03T00:16:00.767Z,98446.81
2024-01-03T00:18:36.584Z,98465.53
2024-01-03T00:21:07.461Z,98476.25
2024-01-03T00:23:39.304Z,98450.53
2024-01-03T00:26:08.241Z,98471.44
2024-01-03T00:28:35.024Z,98406.66
2024-01-03T00:31:02.367Z,98475.72
2024-01-03T00:33:29.644Z,98458.94
2024-01-03T00:35:57.897Z,98456.94
2024-01-03T00:38:24.571Z,98427.41
2024-01-03T00:40:53.357Z,98442.41
2024-01-03T00:43:20.057Z,98479.81
2024-01-03T00:45:49.268Z,98473.94
2024-01-03T00:48:17.100Z,98453.38
2024-01-03T00:50:43.963Z,98480.31
2024-01-03T00:53:12.202Z,98476.44
2024-01-03T00:55:42.583Z,98495.63
2024-01-03T00:58:10.241Z,98466.84
2024-01-03T01:00:38.340Z,98509.84
2024-01-03T01:03:05.680Z,98477.97
2024-01-03T01:05:32.888Z,98515.88
2024-01-03T01:07:59.700Z,98518.91
2024-01-03T01:10:26.293Z,98464.06
2024-01-03T01:12:52.919Z,98511.38
2024-01-03T01:15:19.679Z,98512.41
2024-01-03T01:17:46.384Z,98517.34
2024-01-03T01:20:13.032Z,98543.22
2024-01-03T01:22:39.631Z,98509.13
2024-01-03T01:25:06.868Z,98532.44
2024-01-03T01:27:33.415Z,98525.78
2024-01-03T01:29:59.906Z,98543.44
2024-01-03T01:32:26.539Z,98536.84
2024-01-03T01:34:53.453Z,98535.38
2024-01-03T01:37:20.277Z,98542.56
2024-01-03T01:39:47.475Z,98520.75
2024-01-03T01:42:14.261Z,98512.09
2024-01-03T01:44:40.963Z,98527.03
2024-01-03T01:47:09.397Z,98571.47
2024-01-03T01:49:36.275Z,98566.91
2024-01-03T01:52:02.937Z,98559.19
2024-01-03T01:54:29.961Z,98562.91
2024-01-03T01:56:57.065Z,98545.41
2024-01-03T01:59:24.444Z,98551.69
2024-01-03T02:01:51.624Z,98564.38
2024-01-03T02:04:18.384Z,98568.81
2024-01-03T02:06:44.956Z,98575.25
2024-01-03T02:09:11.750Z,98586.44
2024-01-03T02:11:46.202Z,98577.78
2024-01-03T02:14:12.930Z,98562.59
2024-01-03T02:16:39.739Z,98588.66
2024-01-03T02:19:06.742Z,98589.13
2024-01-03T02:21:33.613Z,98567.56
2024-01-03T02:24:00.247Z,98586.97
2024-01-03T02:26:30.284Z,98534.59
2024-01-03T02:28:57.659Z,98582.75
2024-01-03T02:31:24.649Z,98566.75
2024-01-03T02:33:51.439Z,98544.88
2024-01-03T02:36:18.116Z,98570.84
2024-01-03T02:38:48.583Z,98584.47
2024-01-03T02:41:15.462Z,98574.00
2024-01-03T02:43:42.053Z,98565.94
2024-01-03T02:46:08.630Z,98589.84
2024-01-03T02:48:35.287Z,98559.72
2024-01-03T02:51:02.328Z,98577.94
2024-01-03T02:53:28.891Z,98531.59
2024-01-03T02:55:55.577Z,98539.63
2024-01-03T02:58:22.269Z,98532.44
2024-01-03T03:00:49.004Z,98581.72
2024-01-03T03:03:15.894Z,98580.41
2024-01-03T03:05:42.559Z,98556.84
2024-01-03T03:08:09.606Z,98599.34
2024-01-03T03:10:36.341Z,98529.66
2024-01-03T03:13:03.088Z,98583.97
2024-01-03T03:15:29.668Z,98603.56
2024-01-03T03:17:56.394Z,98609.91
2024-01-03T03:20:23.156Z,98554.19
2024-01-03T03:22:49.993Z,98533.56
2024-01-03T03:25:16.490Z,98588.03
2024-01-03T03:27:43.059Z,98527.91
2024-01-03T03:30:10.167Z,98607.47
2024-01-03T03:32:37.194Z,98593.81
2024-01-03T03:35:04.058Z,98589.63
2024-01-03T03:37:30.603Z,98530.28
2024-01-03T03:39:57.222Z,98605.69
2024-01-03T03:42:23.972Z,98605.63
2024-01-03T03:44:50.591Z,98603.16
2024-01-03T03:47:17.261Z,98567.78
2024-01-03T03:49:43.852Z,98607.28
2024-01-03T03:52:10.436Z,98601.59
2024-01-03T03:54:36.994Z,98609.50
2024-01-03T03:57:03.745Z,98576.44
2024-01-03T03:59:30.768Z,98604.84
2024-01-03T04:01:57.379Z,98617.25
2024-01-03T04:04:23.902Z,98618.53
2024-01-03T04:06:50.425Z,98597.00
2024-01-03T04:09:17.073Z,98573.53
2024-01-03T04:11:44.609Z,98626.34
2024-01-03T04:14:11.942Z,98628.34
2024-01-03T04:16:39.025Z,98634.97
2024-01-03T04:19:05.848Z,98589.47
2024-01-03T04:21:32.701Z,98621.16
2024-01-03T04:23:59.606Z,98629.19
2024-01-03T04:26:26.924Z,98618.78
2024-01-03T04:28:53.565Z,98623.53
2024-01-03T04:31:20.396Z,98633.28
2024-01-03T04:33:47.285Z,98627.69
2024-01-03T04:36:14.004Z,98631.94
2024-01-03T04:38:40.548Z,98637.22
2024-01-03T04:41:07.067Z,98635.38
2024-01-03T04:43:33.638Z,98642.19
2024-01-03T04:46:00.618Z,98648.47
2024-01-03T04:48:27.211Z,98638.69
2024-01-03T04:50:53.889Z,98624.16
2024-01-03T04:53:20.833Z,98643.00
2024-01-03T04:55:47.470Z,98606.00
2024-01-03T04:58:14.131Z,98638.94
2024-01-03T05:00:40.821Z,98637.94
2024-01-03T05:03:07.846Z,98645.25
2024-01-03T05:05:34.546Z,98647.25
2024-01-03T05:08:01.216Z,98645.06
2024-01-03T05:10:28.012Z,98629.44
2024-01-03T05:12:54.616Z,98634.59
2024-01-03T05:15:21.126Z,98572.75
2024-01-03T05:17:48.386Z,98614.06
2024-01-03T05:20:15.457Z,98645.72
2024-01-03T05:22:42.223Z,98626.53
2024-01-03T05:25:09.823Z,98645.59
2024-01-03T05:27:36.744Z,98630.56
2024-01-03T05:30:03.968Z,98635.84
2024-01-03T05:32:30.745Z,98620.53
2024-01-03T05:34:57.395Z,98582.34
2024-01-03T05:37:24.009Z,98611.06
2024-01-03T05:39:50.598Z,98576.00
2024-01-03T05:42:17.199Z,98584.88
2024-01-03T05:44:44.062Z,98615.66
2024-01-03T05:47:10.720Z,98534.50
2024-01-03T05:49:37.415Z,98611.88
2024-01-03T05:52:04.357Z,98593.19
2024-01-03T05:54:32.735Z,98600.56
2024-01-03T05:57:01.101Z,98591.13
2024-01-03T05:59:27.934Z,98605.81
2024-01-03T06:01:54.738Z,98580.38
2024-01-03T06:04:21.400Z,98611.00
2024-01-03T06:06:48.228Z,98606.03
2024-01-03T06:09:15.050Z,98603.31
2024-01-03T06:11:41.861Z,98596.22
2024-01-03T06:14:08.687Z,98597.56
2024-01-03T06:16:35.471Z,98591.03
2024-01-03T06:19:02.167Z,98582.56
2024-01-03T06:21:29.370Z,98581.31
2024-01-03T06:23:56.102Z,98599.81
2024-01-03T06:26:24.811Z,98602.19
2024-01-03T06:28:51.414Z,98601.66
2024-01-03T06:31:23.128Z,98606.53
2024-01-03T06:33:50.311Z,98601.69
2024-01-03T06:36:17.150Z,98612.34
2024-01-03T06:38:43.801Z,98594.00
2024-01-03T06:41:10.899Z,98611.34
2024-01-03T06:43:37.675Z,98597.31
2024-01-03T06:46:04.596Z,98614.09
2024-01-03T06:48:31.307Z,98625.44
2024-01-03T06:50:58.038Z,98583.84
2024-01-03T06:53:24.995Z,98597.75
2024-01-03T06:55:51.535Z,98607.16
2024-01-03T06:58:20.193Z,98603.81
2024-01-03T07:00:46.830Z,98596.81
2024-01-03T07:03:13.860Z,98597.50
2024-01-03T07:05:42.037Z,98603.56
2024-01-03T07:08:09.433Z,98616.88
2024-01-03T07:10:36.186Z,98602.19
2024-01-03T07:13:02.735Z,98595.53
2024-01-03T07:15:29.652Z,98556.97
2024-01-03T07:17:57.216Z,98616.47
2024-01-03T07:20:24.281Z,98624.19
2024-01-03T07:22:51.046Z,98628.16
2024-01-03T07:25:19.192Z,98622.28
2024-01-03T07:27:46.678Z,98596.25
2024-01-03T07:30:13.460Z,98616.75
2024-01-03T07:32:40.227Z,98614.44
2024-01-03T07:35:08.243Z,98605.78
2024-01-03T07:37:35.317Z,98619.84
2024-01-03T07:40:02.004Z,98577.56
2024-01-03T07:42:28.580Z,98600.84
2024-01-03T07:44:55.093Z,98624.72
2024-01-03T07:47:22.120Z,98627.41
2024-01-03T07:49:49.122Z,98631.59
2024-01-03T07:52:15.729Z,98622.59
2024-01-03T07:54:42.512Z,98631.69
2024-01-03T07:57:10.008Z,98629.84
2024-01-03T07:59:37.451Z,98635.84
2024-01-03T08:02:04.878Z,98635.19
2024-01-03T08:04:31.531Z,98642.31
2024-01-03T08:06:58.347Z,98647.38
2024-01-03T08:09:25.100Z,98549.81
2024-01-03T08:11:51.965Z,98648.09
2024-01-03T08:14:18.824Z,98653.94
2024-01-03T08:16:45.682Z,98659.75
2024-01-03T08:19:12.350Z,98673.59
2024-01-03T08:21:39.415Z,98647.38
2024-01-03T08:24:06.455Z,98676.41
2024-01-03T08:26:33.360Z,98675.00
2024-01-03T08:29:00.069Z,98671.44
2024-01-03T08:31:26.885Z,98685.47
2024-01-03T08:33:53.589Z,98634.28
2024-01-03T08:36:21.161Z,98677.09
2024-01-03T08:38:48.369Z,98689.50
2024-01-03T08:41:18.900Z,98690.66
2024-01-03T08:43:46.303Z,98684.03
2024-01-03T08:46:13.386Z,98688.41
2024-01-03T08:48:44.070Z,98693.16
2024-01-03T08:51:15.003Z,98686.53
2024-01-03T08:53:42.078Z,98690.88
2024-01-03T08:56:15.515Z,98689.53
2024-01-03T08:58:43.225Z,98689.97
2024-01-03T09:01:12.362Z,98702.00
2024-01-03T09:03:42.065Z,98655.41
2024-01-03T09:06:09.083Z,98632.94
2024-01-03T09:08:36.263Z,98612.41
2024-01-03T09:11:09.834Z,98689.06
2024-01-03T09:13:39.184Z,98619.50
2024-01-03T09:16:06.748Z,98719.13
2024-01-03T09:18:33.847Z,98718.34
2024-01-03T09:21:04.161Z,98699.63
2024-01-03T09:23:31.397Z,98710.09
2024-01-03T09:25:59.126Z,98742.44
2024-01-03T09:28:27.000Z,98716.28
2024-01-03T09:30:53.962Z,98737.09
2024-01-03T09:33:20.996Z,98730.88
2024-01-03T09:35:47.935Z,98732.19
2024-01-03T09:38:16.159Z,98742.91
2024-01-03T09:40:42.988Z,98731.66
2024-01-03T09:43:12.077Z,98724.34
2024-01-03T09:45:39.369Z,98757.41
2024-01-03T09:48:07.120Z,98738.34
2024-01-03T09:50:34.369Z,98754.69
2024-01-03T09:53:01.795Z,98746.25
2024-01-03T09:55:30.614Z,98749.19
2024-01-03T09:57:58.421Z,98729.69
2024-01-03T10:00:32.021Z,98755.38
2024-01-03T10:03:05.536Z,98748.44
2024-01-03T10:05:32.694Z,98718.19
2024-01-03T10:07:59.603Z,98699.63
2024-01-03T10:10:33.618Z,98655.25
2024-01-03T10:13:29.661Z,98683.56
2024-01-03T10:15:56.408Z,98741.47
2024-01-03T10:18:26.665Z,98667.53
2024-01-03T10:20:55.107Z,98663.25
2024-01-03T10:23:22.745Z,98749.78
2024-01-03T10:25:50.105Z,98755.50
2024-01-03T10:28:19.113Z,98691.75
2024-01-03T10:30:52.612Z,98687.72
2024-01-03T10:33:20.486Z,98722.44
2024-01-03T10:35:47.643Z,98760.25
2024-01-03T10:38:16.793Z,98747.34
2024-01-03T10:40:45.117Z,98699.09
2024-01-03T10:43:12.184Z,98666.59
2024-01-03T10:45:39.113Z,98652.66
2024-01-03T10:48:06.721Z,98651.25
2024-01-03T10:50:36.089Z,98759.81
2024-01-03T10:53:10.027Z,98714.88
2024-01-03T10:55:39.430Z,98738.22
2024-01-03T10:58:15.444Z,98696.91
2024-01-03T11:00:52.017Z,98721.00
2024-01-03T11:03:38.075Z,98762.50
2024-01-03T11:06:27.214Z,98764.31
2024-01-03T11:09:01.320Z,98647.81
2024-01-03T11:11:35.363Z,98760.56
2024-01-03T11:14:03.987Z,98655.34
2024-01-03T11:16:40.837Z,98717.28
2024-01-03T11:19:09.551Z,98728.44
2024-01-03T11:21:40.969Z,98719.88
2024-01-03T11:24:22.395Z,98770.22
2024-01-03T11:26:58.289Z,98756.22
2024-01-03T11:29:38.687Z,98763.69
2024-01-03T11:32:06.819Z,98755.16
2024-01-03T11:34:42.830Z,98763.03
2024-01-03T11:37:13.108Z,98740.78
2024-01-03T11:39:44.680Z,98644.38
2024-01-03T11:42:17.460Z,98735.38
2024-01-03T11:44:44.723Z,98715.13
2024-01-03T11:47:12.619Z,98763.66
2024-01-03T11:49:39.515Z,98652.47
2024-01-03T11:52:06.819Z,98645.88
2024-01-03T11:54:36.956Z,98710.91
2024-01-03T11:57:11.241Z,98710.41
2024-01-03T11:59:38.578Z,98638.41
2024-01-03T12:02:06.270Z,98643.88
2024-01-03T12:04:34.360Z,98612.00
2024-01-03T12:07:01.705Z,98653.13
2024-01-03T12:09:32.588Z,98686.56
2024-01-03T12:11:59.769Z,98636.22
2024-01-03T12:14:29.282Z,98694.47
2024-01-03T12:17:01.500Z,98637.94
2024-01-03T12:19:32.511Z,98623.56
2024-01-03T12:22:03.337Z,98614.44
2024-01-03T12:24:45.921Z,98614.91
2024-01-03T12:27:20.936Z,98720.09
2024-01-03T12:29:47.716Z,98677.63
2024-01-03T12:32:20.559Z,98625.19
2024-01-03T12:34:49.066Z,98606.81
2024-01-03T12:37:16.705Z,98644.59
2024-01-03T12:39:43.664Z,98589.41
2024-01-03T12:42:11.939Z,98588.91
2024-01-03T12:44:40.379Z,98593.28
2024-01-03T12:47:10.077Z,98577.56
2024-01-03T12:49:41.620Z,98682.34
2024-01-03T12:52:10.091Z,98673.38
2024-01-03T12:54:37.883Z,98662.44
2024-01-03T12:57:05.324Z,98673.31
2024-01-03T12:59:32.108Z,98668.66
2024-01-03T13:01:58.888Z,98564.56
2024-01-03T13:04:25.807Z,98553.81
2024-01-03T13:06:52.478Z,98612.16
2024-01-03T13:09:25.554Z,98564.94
2024-01-03T13:11:53.779Z,98558.16
2024-01-03T13:14:20.661Z,98556.56
2024-01-03T13:16:47.748Z,98632.84
2024-01-03T13:19:14.666Z,98574.22
2024-01-03T13:21:43.959Z,98669.72
2024-01-03T13:24:11.033Z,98635.84
2024-01-03T13:26:37.760Z,98610.53
2024-01-03T13:29:04.532Z,98572.56
2024-01-03T13:31:31.251Z,98643.34
2024-01-03T13:33:58.234Z,98627.28
2024-01-03T13:36:25.754Z,98626.00
2024-01-03T13:38:52.719Z,98550.81
2024-01-03T13:41:20.040Z,98649.06
2024-01-03T13:43:46.675Z,98652.44
2024-01-03T13:46:14.770Z,98613.50
2024-01-03T13:48:42.445Z,98640.88
2024-01-03T13:51:12.150Z,98651.00
2024-01-03T13:53:38.761Z,98657.47
2024-01-03T13:56:06.642Z,98653.13
2024-01-03T13:58:37.210Z,98651.00
2024-01-03T14:01:04.086Z,98644.59
2024-01-03T14:03:32.785Z,98652.63
2024-01-03T14:06:01.762Z,98651.28
2024-01-03T14:08:28.643Z,98621.03
2024-01-03T14:10:56.925Z,98653.69
2024-01-03T14:13:23.624Z,98600.59
2024-01-03T14:15:50.404Z,98642.88
2024-01-03T14:18:16.979Z,98637.13
2024-01-03T14:20:43.598Z,98649.16
2024-01-03T14:23:13.829Z,98636.06
2024-01-03T14:25:41.468Z,98635.94
2024-01-03T14:28:09.301Z,98622.41
2024-01-03T14:30:37.098Z,98634.41
2024-01-03T14:33:04.871Z,98624.91
2024-01-03T14:35:33.293Z,98610.00
2024-01-03T14:38:00.032Z,98599.88
2024-01-03T14:40:30.790Z,98628.34
2024-01-03T14:43:05.142Z,98572.31
2024-01-03T14:45:32.271Z,98577.44
2024-01-03T14:48:00.500Z,98560.97
2024-01-03T14:50:30.365Z,98598.75
2024-01-03T14:52:57.327Z,98632.78
2024-01-03T14:55:24.301Z,98634.81
2024-01-03T14:57:51.301Z,98612.22
2024-01-03T15:00:18.464Z,98637.50
2024-01-03T15:02:55.551Z,98623.56
2024-01-03T15:05:33.097Z,98643.22
2024-01-03T15:08:00.071Z,98633.09
2024-01-03T15:10:26.941Z,98527.97
2024-01-03T15:12:53.727Z,98600.88
2024-01-03T15:15:20.332Z,98636.47
2024-01-03T15:17:51.324Z,98545.28
2024-01-03T15:20:18.184Z,98526.59
2024-01-03T15:22:45.135Z,98643.31
2024-01-03T15:25:12.452Z,98624.75
2024-01-03T15:27:39.369Z,98616.38
2024-01-03T15:30:06.920Z,98622.00
2024-01-03T15:32:37.944Z,98610.59
2024-01-03T15:35:09.872Z,98585.56
2024-01-03T15:37:36.848Z,98594.09
2024-01-03T15:40:29.393Z,98581.50
2024-01-03T15:42:58.262Z,98499.03
2024-01-03T15:45:28.739Z,98545.50
2024-01-03T15:47:55.741Z,98599.53
2024-01-03T15:50:24.389Z,98584.28
2024-01-03T15:52:52.263Z,98589.00
2024-01-03T15:55:19.148Z,98575.81
2024-01-03T15:57:48.034Z,98578.94
2024-01-03T16:00:17.993Z,98478.66
2024-01-03T16:02:45.322Z,98574.75
2024-01-03T16:05:12.368Z,98581.38
2024-01-03T16:07:39.399Z,98580.41
2024-01-03T16:10:07.030Z,98567.63
2024-01-03T16:12:33.629Z,98564.19
2024-01-03T16:15:00.646Z,98540.13
2024-01-03T16:17:27.732Z,98535.38
2024-01-03T16:19:54.748Z,98492.63
2024-01-03T16:22:22.925Z,98555.13
2024-01-03T16:24:49.758Z,98549.91
2024-01-03T16:27:18.991Z,98529.53
2024-01-03T16:29:46.568Z,98553.97
2024-01-03T16:32:13.877Z,98513.69
2024-01-03T16:34:40.776Z,98563.94
2024-01-03T16:37:12.876Z,98542.94
2024-01-03T16:39:39.803Z,98546.06
2024-01-03T16:42:06.783Z,98547.81
2024-01-03T16:44:33.606Z,98546.63
2024-01-03T16:47:00.927Z,98543.75
2024-01-03T16:49:27.780Z,98521.59
2024-01-03T16:51:57.756Z,98469.28
2024-01-03T16:54:28.358Z,98525.31
2024-01-03T16:56:56.416Z,98504.94
2024-01-03T16:59:24.767Z,98471.59
2024-01-03T17:01:54.170Z,98524.34
2024-01-03T17:04:21.677Z,98523.00
2024-01-03T17:06:48.938Z,98529.41
2024-01-03T17:09:17.284Z,98527.31
2024-01-03T17:11:44.875Z,98509.19
2024-01-03T17:14:11.894Z,98556.06
2024-01-03T17:16:38.507Z,98571.53
2024-01-03T17:19:05.723Z,98545.72
2024-01-03T17:21:33.613Z,98572.19
2024-01-03T17:24:00.988Z,98562.66
2024-01-03T17:26:30.598Z,98573.19
2024-01-03T17:28:57.524Z,98539.03
2024-01-03T17:31:24.772Z,98561.28
2024-01-03T17:33:52.020Z,98564.50
2024-01-03T17:36:20.435Z,98499.09
2024-01-03T17:38:50.202Z,98573.78
2024-01-03T17:41:21.527Z,98535.09
2024-01-03T17:43:48.370Z,98508.06
2024-01-03T17:46:15.124Z,98509.31
2024-01-03T17:48:42.644Z,98537.06
2024-01-03T17:51:10.879Z,98502.81
2024-01-03T17:53:37.964Z,98547.09
2024-01-03T17:56:06.349Z,98525.28
2024-01-03T17:58:34.508Z,98575.38
2024-01-03T18:01:03.302Z,98585.16
2024-01-03T18:03:30.157Z,98474.88
2024-01-03T18:05:57.349Z,98590.09
2024-01-03T18:08:24.288Z,98588.75
2024-01-03T18:10:52.049Z,98584.47
2024-01-03T18:13:19.165Z,98580.22
2024-01-03T18:15:46.047Z,98579.88
2024-01-03T18:18:13.492Z,98557.00
2024-01-03T18:20:40.540Z,98506.63
2024-01-03T18:23:07.370Z,98575.81
2024-01-03T18:25:34.710Z,98534.31
2024-01-03T18:28:01.327Z,98572.13
2024-01-03T18:30:28.845Z,98578.78
2024-01-03T18:32:58.109Z,98579.59
2024-01-03T18:35:25.321Z,98583.22
2024-01-03T18:37:52.155Z,98580.53
2024-01-03T18:40:18.974Z,98577.00
2024-01-03T18:42:45.529Z,98537.78
2024-01-03T18:45:12.552Z,98580.03
2024-01-03T18:47:39.349Z,98584.34
2024-01-03T18:50:07.228Z,98590.81
2024-01-03T18:52:34.139Z,98596.06
2024-01-03T18:55:02.132Z,98602.19
2024-01-03T18:57:32.316Z,98597.16
2024-01-03T18:59:59.866Z,98593.44
2024-01-03T19:02:26.965Z,98601.09
2024-01-03T19:04:55.339Z,98565.59
2024-01-03T19:07:23.162Z,98505.19
2024-01-03T19:09:50.740Z,98630.00
2024-01-03T19:12:17.591Z,98616.19
2024-01-03T19:14:44.303Z,98629.53
2024-01-03T19:17:12.585Z,98603.34
2024-01-03T19:19:39.727Z,98539.44
2024-01-03T19:22:06.588Z,98604.72
2024-01-03T19:24:33.937Z,98632.88
2024-01-03T19:27:00.836Z,98567.91
2024-01-03T19:29:31.272Z,98573.94
2024-01-03T19:31:57.966Z,98598.91
2024-01-03T19:34:24.916Z,98610.44
2024-01-03T19:36:54.925Z,98640.78
2024-01-03T19:39:21.698Z,98655.69
2024-01-03T19:41:54.049Z,98607.06
2024-01-03T19:44:21.318Z,98622.47
2024-01-03T19:46:48.089Z,98599.03
2024-01-03T19:49:15.336Z,98670.56
2024-01-03T19:51:42.161Z,98668.94
2024-01-03T19:54:17.647Z,98634.91
2024-01-03T19:56:53.699Z,98561.94
2024-01-03T19:59:31.976Z,98571.69
2024-01-03T20:01:59.053Z,98572.78
2024-01-03T20:04:25.802Z,98687.94
2024-01-03T20:07:24.360Z,98679.69
2024-01-03T20:09:57.165Z,98637.56
2024-01-03T20:12:26.461Z,98638.22
2024-01-03T20:14:56.213Z,98676.44
2024-01-03T20:17:23.929Z,98654.31
2024-01-03T20:19:53.625Z,98619.38
2024-01-03T20:22:28.006Z,98578.72
2024-01-03T20:24:54.571Z,98601.88
2024-01-03T20:27:21.479Z,98716.94
2024-01-03T20:29:48.098Z,98700.94
2024-01-03T20:32:18.524Z,98675.22
2024-01-03T20:34:58.389Z,98617.97
2024-01-03T20:37:26.089Z,98728.72
2024-01-03T20:39:53.730Z,98676.47
2024-01-03T20:42:20.405Z,98720.09
2024-01-03T20:44:47.324Z,98727.63
2024-01-03T20:47:13.972Z,98729.22
2024-01-03T20:49:40.781Z,98731.25
2024-01-03T20:52:07.620Z,98726.09
2024-01-03T20:54:38.094Z,98745.31
2024-01-03T20:57:05.621Z,98731.34
2024-01-03T20:59:36.926Z,98734.56
2024-01-03T21:02:03.835Z,98751.94
2024-01-03T21:04:31.215Z,98721.34
2024-01-03T21:06:58.312Z,98745.56
2024-01-03T21:09:32.732Z,98729.81
2024-01-03T21:11:59.652Z,98757.41
2024-01-03T21:14:27.170Z,98752.22
2024-01-03T21:16:54.853Z,98685.25
2024-01-03T21:19:21.600Z,98724.81
2024-01-03T21:21:48.360Z,98664.06
2024-01-03T21:24:21.328Z,98696.50
2024-01-03T21:26:51.068Z,98675.50
2024-01-03T21:29:29.314Z,98740.72
2024-01-03T21:32:01.428Z,98717.13
2024-01-03T21:34:31.152Z,98747.97
2024-01-03T21:37:02.503Z,98676.16
2024-01-03T21:39:29.402Z,98667.13
2024-01-03T21:42:01.684Z,98708.13
2024-01-03T21:44:28.477Z,98697.44
2024-01-03T21:46:55.337Z,98745.59
2024-01-03T21:49:22.379Z,98753.78
2024-01-03T21:51:49.150Z,98642.72
2024-01-03T21:54:17.551Z,98630.72
2024-01-03T21:56:44.361Z,98750.66
2024-01-03T21:59:11.006Z,98715.53
2024-01-03T22:01:37.651Z,98649.91
2024-01-03T22:04:04.388Z,98746.69
2024-01-03T22:06:31.470Z,98719.94
2024-01-03T22:08:58.323Z,98719.75
2024-01-03T22:11:25.430Z,98649.56
2024-01-03T22:13:52.472Z,98709.53
2024-01-03T22:16:20.587Z,98640.00
2024-01-03T22:18:49.960Z,98679.63
2024-01-03T22:21:17.769Z,98759.94
2024-01-03T22:23:46.185Z,98763.88
2024-01-03T22:26:13.018Z,98758.84
2024-01-03T22:28:39.690Z,98730.47
2024-01-03T22:31:06.822Z,98739.00
2024-01-03T22:33:35.631Z,98712.69
2024-01-03T22:36:02.875Z,98762.13
2024-01-03T22:38:29.673Z,98670.34
2024-01-03T22:40:56.796Z,98770.94
2024-01-03T22:43:23.482Z,98713.31
2024-01-03T22:45:49.993Z,98746.97
2024-01-03T22:48:17.036Z,98779.56
2024-01-03T22:50:43.761Z,98783.22
2024-01-03T22:53:10.304Z,98801.00
2024-01-03T22:55:36.961Z,98672.41
2024-01-03T22:58:04.099Z,98786.31
2024-01-03T23:00:30.864Z,98809.25
2024-01-03T23:02:57.700Z,98828.84
2024-01-03T23:05:24.322Z,98839.34
2024-01-03T23:07:51.017Z,98834.97
2024-01-03T23:10:17.952Z,98793.25
2024-01-03T23:12:44.633Z,98823.19
2024-01-03T23:15:11.541Z,98840.09
2024-01-03T23:17:38.731Z,98842.50
2024-01-03T23:20:06.132Z,98851.19
2024-01-03T23:22:32.832Z,98856.44
2024-01-03T23:25:00.177Z,98853.50
2024-01-03T23:27:27.091Z,98871.66
2024-01-03T23:29:53.679Z,98871.59
2024-01-03T23:32:20.273Z,98852.69
2024-01-03T23:34:46.878Z,98829.53
2024-01-03T23:37:13.489Z,98871.59
2024-01-03T23:39:40.122Z,98827.28
2024-01-03T23:42:07.300Z,98889.56
2024-01-03T23:44:34.241Z,98887.03
2024-01-03T23:47:01.178Z,98769.22
2024-01-03T23:49:27.982Z,98843.69
2024-01-03T23:51:54.933Z,98894.19
2024-01-03T23:54:21.755Z,98860.66
2024-01-03T23:56:48.435Z,98909.41
2024-01-03T23:59:15.059Z,98815.47
